createdAt,value
2018-04-14T00:00:53.552Z,1008.90
2018-04-14T00:01:53.505Z,1008.93
2018-04-14T00:02:53.467Z,1008.95
2018-04-14T00:03:53.427Z,1008.93
2018-04-14T00:04:53.413Z,1008.93
2018-04-14T00:05:53.345Z,1008.93
2018-04-14T00:06:53.309Z,1008.95
2018-04-14T00:07:53.260Z,1009.01
2018-04-14T00:09:03.274Z,1009.00
2018-04-14T00:09:53.190Z,1008.99
2018-04-14T00:10:53.154Z,1009.00
2018-04-14T00:11:53.101Z,1009.01
2018-04-14T00:12:53.074Z,1009.04
2018-04-14T00:13:53.028Z,1009.04
2018-04-14T00:14:53.009Z,1009.06
2018-04-14T00:15:52.945Z,1009.09
2018-04-14T00:16:52.916Z,1009.07
2018-04-14T00:17:52.873Z,1009.06
2018-04-14T00:18:52.827Z,1009.10
2018-04-14T00:19:52.791Z,1009.11
2018-04-14T00:20:52.781Z,1009.10
2018-04-14T00:21:52.716Z,1009.08
2018-04-14T00:22:52.667Z,1009.09
2018-04-14T00:23:52.633Z,1009.08
2018-04-14T00:24:52.588Z,1009.09
2018-04-14T00:25:52.559Z,1009.09
2018-04-14T00:26:52.542Z,1009.07
2018-04-14T00:27:52.481Z,1009.11
2018-04-14T00:28:52.442Z,1009.11
2018-04-14T00:29:52.388Z,1009.13
2018-04-14T00:31:02.791Z,1009.14
2018-04-14T00:31:52.354Z,1009.14
2018-04-14T00:32:52.267Z,1009.12
2018-04-14T00:33:52.233Z,1009.15
2018-04-14T00:34:52.191Z,1009.13
2018-04-14T00:35:52.155Z,1009.17
2018-04-14T00:36:52.116Z,1009.17
2018-04-14T00:37:52.107Z,1009.15
2018-04-14T00:38:52.039Z,1009.16
2018-04-14T00:39:51.995Z,1009.15
2018-04-14T00:40:51.961Z,1009.18
2018-04-14T00:41:51.922Z,1009.18
2018-04-14T00:42:51.874Z,1009.19
2018-04-14T00:43:51.866Z,1009.20
2018-04-14T00:44:51.791Z,1009.22
2018-04-14T00:45:51.763Z,1009.21
2018-04-14T00:46:51.712Z,1009.20
2018-04-14T00:47:51.680Z,1009.23
2018-04-14T00:48:51.653Z,1009.20
2018-04-14T00:49:51.630Z,1009.22
2018-04-14T00:50:51.558Z,1009.24
2018-04-14T00:52:02.833Z,1009.20
2018-04-14T00:52:51.476Z,1009.24
2018-04-14T00:53:51.447Z,1009.24
2018-04-14T00:54:51.396Z,1009.26
2018-04-14T00:55:51.390Z,1009.26
2018-04-14T00:56:51.314Z,1009.26
2018-04-14T00:57:51.286Z,1009.23
2018-04-14T00:58:51.241Z,1009.26
2018-04-14T00:59:51.204Z,1009.27
2018-04-14T01:00:51.171Z,1009.29
2018-04-14T01:01:51.160Z,1009.29
2018-04-14T01:02:51.087Z,1009.29
2018-04-14T01:03:51.044Z,1009.27
2018-04-14T01:04:51.005Z,1009.28
2018-04-14T01:05:50.962Z,1009.31
2018-04-14T01:06:50.923Z,1009.28
2018-04-14T01:07:50.918Z,1009.29
2018-04-14T01:08:50.853Z,1009.32
2018-04-14T01:09:50.808Z,1009.29
2018-04-14T01:10:50.767Z,1009.31
2018-04-14T01:11:50.719Z,1009.31
2018-04-14T01:12:50.693Z,1009.30
2018-04-14T01:13:50.682Z,1009.32
2018-04-14T01:14:50.604Z,1009.30
2018-04-14T01:15:50.569Z,1009.22
2018-04-14T01:16:50.532Z,1009.28
2018-04-14T01:17:50.491Z,1009.25
2018-04-14T01:18:50.482Z,1009.21
2018-04-14T01:19:50.416Z,1009.25
2018-04-14T01:20:50.376Z,1009.19
2018-04-14T01:21:50.338Z,1009.17
2018-04-14T01:22:50.288Z,1009.18
2018-04-14T01:23:50.259Z,1009.17
2018-04-14T01:24:50.237Z,1009.18
2018-04-14T01:25:50.185Z,1009.15
2018-04-14T01:26:50.140Z,1009.14
2018-04-14T01:27:50.117Z,1009.11
2018-04-14T01:28:50.057Z,1009.12
2018-04-14T01:29:50.014Z,1009.12
2018-04-14T01:30:50.013Z,1009.11
2018-04-14T01:31:49.938Z,1009.11
2018-04-14T01:32:49.902Z,1009.13
2018-04-14T01:34:00.367Z,1009.13
2018-04-14T01:34:49.821Z,1009.20
2018-04-14T01:35:49.780Z,1009.18
2018-04-14T01:36:49.768Z,1009.20
2018-04-14T01:37:49.707Z,1009.21
2018-04-14T01:38:49.669Z,1009.23
2018-04-14T01:39:49.619Z,1009.24
2018-04-14T01:40:49.590Z,1009.25
2018-04-14T01:41:49.546Z,1009.22
2018-04-14T01:42:49.532Z,1009.29
2018-04-14T01:43:49.466Z,1009.22
2018-04-14T01:44:49.424Z,1009.27
2018-04-14T01:45:49.393Z,1009.25
2018-04-14T01:46:49.344Z,1009.26
2018-04-14T01:47:49.339Z,1009.24
2018-04-14T01:48:49.270Z,1009.26
2018-04-14T01:49:49.224Z,1009.25
2018-04-14T01:50:49.199Z,1009.23
2018-04-14T01:51:49.156Z,1009.25
2018-04-14T01:52:49.108Z,1009.23
2018-04-14T01:53:49.108Z,1009.22
2018-04-14T01:54:59.411Z,1009.25
2018-04-14T01:55:49.000Z,1009.25
2018-04-14T01:56:48.957Z,1009.24
2018-04-14T01:57:48.917Z,1009.24
2018-04-14T01:58:48.888Z,1009.26
2018-04-14T01:59:48.859Z,1009.26
2018-04-14T02:00:48.796Z,1009.27
2018-04-14T02:01:48.762Z,1009.34
2018-04-14T02:02:48.716Z,1009.32
2018-04-14T02:03:48.684Z,1009.37
2018-04-14T02:04:48.675Z,1009.37
2018-04-14T02:05:48.601Z,1009.38
2018-04-14T02:06:48.561Z,1009.38
2018-04-14T02:07:48.517Z,1009.41
2018-04-14T02:08:48.480Z,1009.41
2018-04-14T02:09:48.469Z,1009.39
2018-04-14T02:10:48.406Z,1009.39
2018-04-14T02:11:48.371Z,1009.45
2018-04-14T02:12:48.323Z,1009.47
2018-04-14T02:13:48.299Z,1009.46
2018-04-14T02:14:48.253Z,1009.49
2018-04-14T02:15:48.245Z,1009.47
2018-04-14T02:16:48.161Z,1009.50
2018-04-14T02:17:48.137Z,1009.48
2018-04-14T02:18:48.090Z,1009.40
2018-04-14T02:19:48.046Z,1009.43
2018-04-14T02:20:48.019Z,1009.44
2018-04-14T02:21:48.011Z,1009.46
2018-04-14T02:22:47.934Z,1009.45
2018-04-14T02:23:47.899Z,1009.49
2018-04-14T02:24:47.855Z,1009.49
2018-04-14T02:25:47.818Z,1009.47
2018-04-14T02:26:47.780Z,1009.48
2018-04-14T02:27:47.765Z,1009.54
2018-04-14T02:28:47.739Z,1009.54
2018-04-14T02:29:47.657Z,1009.56
2018-04-14T02:30:47.624Z,1009.58
2018-04-14T02:31:47.582Z,1009.54
2018-04-14T02:32:47.547Z,1009.55
2018-04-14T02:33:47.535Z,1009.51
2018-04-14T02:34:47.467Z,1009.51
2018-04-14T02:35:47.435Z,1009.49
2018-04-14T02:36:58.460Z,1009.48
2018-04-14T02:37:57.488Z,1009.53
2018-04-14T02:38:47.317Z,1009.48
2018-04-14T02:39:47.292Z,1009.48
2018-04-14T02:40:47.235Z,1009.48
2018-04-14T02:41:47.197Z,1009.45
2018-04-14T02:42:47.152Z,1009.43
2018-04-14T02:43:47.108Z,1009.47
2018-04-14T02:44:47.096Z,1009.44
2018-04-14T02:45:47.062Z,1009.46
2018-04-14T02:46:46.993Z,1009.43
2018-04-14T02:47:46.946Z,1009.44
2018-04-14T02:48:46.928Z,1009.45
2018-04-14T02:49:46.883Z,1009.47
2018-04-14T02:50:46.837Z,1009.48
2018-04-14T02:51:46.827Z,1009.50
2018-04-14T02:52:46.758Z,1009.47
2018-04-14T02:53:46.726Z,1009.46
2018-04-14T02:54:46.679Z,1009.46
2018-04-14T02:55:46.647Z,1009.43
2018-04-14T02:56:46.604Z,1009.44
2018-04-14T02:57:46.591Z,1009.45
2018-04-14T02:58:57.022Z,1009.45
2018-04-14T02:59:46.489Z,1009.48
2018-04-14T03:00:46.446Z,1009.46
2018-04-14T03:01:46.407Z,1009.43
2018-04-14T03:02:46.367Z,1009.46
2018-04-14T03:03:46.359Z,1009.46
2018-04-14T03:04:46.290Z,1009.47
2018-04-14T03:05:46.239Z,1009.47
2018-04-14T03:06:46.206Z,1009.48
2018-04-14T03:07:46.166Z,1009.50
2018-04-14T03:08:46.163Z,1009.49
2018-04-14T03:09:46.094Z,1009.51
2018-04-14T03:10:46.050Z,1009.54
2018-04-14T03:11:46.010Z,1009.56
2018-04-14T03:12:45.970Z,1009.52
2018-04-14T03:13:45.935Z,1009.54
2018-04-14T03:14:45.922Z,1009.49
2018-04-14T03:15:45.851Z,1009.54
2018-04-14T03:16:45.816Z,1009.47
2018-04-14T03:17:45.770Z,1009.46
2018-04-14T03:18:45.735Z,1009.53
2018-04-14T03:19:55.570Z,1009.54
2018-04-14T03:20:45.652Z,1009.55
2018-04-14T03:21:45.616Z,1009.55
2018-04-14T03:22:45.577Z,1009.57
2018-04-14T03:23:45.534Z,1009.57
2018-04-14T03:24:45.504Z,1009.60
2018-04-14T03:25:45.475Z,1009.59
2018-04-14T03:26:45.421Z,1009.63
2018-04-14T03:27:45.378Z,1009.61
2018-04-14T03:28:45.341Z,1009.63
2018-04-14T03:29:45.295Z,1009.62
2018-04-14T03:30:45.282Z,1009.65
2018-04-14T03:31:45.225Z,1009.68
2018-04-14T03:32:45.180Z,1009.66
2018-04-14T03:33:45.139Z,1009.68
2018-04-14T03:34:45.104Z,1009.69
2018-04-14T03:35:45.057Z,1009.67
2018-04-14T03:36:45.051Z,1009.71
2018-04-14T03:37:44.977Z,1009.68
2018-04-14T03:38:44.938Z,1009.70
2018-04-14T03:39:44.895Z,1009.69
2018-04-14T03:40:52.446Z,1009.76
2018-04-14T03:41:55.135Z,1009.75
2018-04-14T03:42:44.784Z,1009.74
2018-04-14T03:43:44.738Z,1009.80
2018-04-14T03:44:44.715Z,1009.80
2018-04-14T03:45:44.654Z,1009.81
2018-04-14T03:46:44.654Z,1009.88
2018-04-14T03:47:44.578Z,1009.90
2018-04-14T03:48:44.543Z,1009.89
2018-04-14T03:49:44.499Z,1009.90
2018-04-14T03:50:44.468Z,1009.89
2018-04-14T03:51:44.421Z,1009.89
2018-04-14T03:52:44.424Z,1009.89
2018-04-14T03:53:44.337Z,1009.91
2018-04-14T03:54:44.293Z,1009.91
2018-04-14T03:55:44.263Z,1009.93
2018-04-14T03:56:44.211Z,1009.93
2018-04-14T03:57:44.185Z,1009.97
2018-04-14T03:58:44.172Z,1009.93
2018-04-14T03:59:44.098Z,1009.95
2018-04-14T04:00:44.056Z,1009.92
2018-04-14T04:01:44.019Z,1009.94
2018-04-14T04:02:43.974Z,1009.92
2018-04-14T04:03:43.973Z,1009.94
2018-04-14T04:04:43.901Z,1009.94
2018-04-14T04:05:43.863Z,1009.99
2018-04-14T04:06:43.822Z,1010.03
2018-04-14T04:07:43.779Z,1010.07
2018-04-14T04:08:43.776Z,1010.08
2018-04-14T04:09:43.699Z,1010.10
2018-04-14T04:10:43.660Z,1010.09
2018-04-14T04:11:43.613Z,1010.11
2018-04-14T04:12:43.583Z,1010.12
2018-04-14T04:13:43.545Z,1010.13
2018-04-14T04:14:43.534Z,1010.12
2018-04-14T04:15:43.509Z,1010.16
2018-04-14T04:16:43.422Z,1010.15
2018-04-14T04:17:43.375Z,1010.19
2018-04-14T04:18:43.351Z,1010.20
2018-04-14T04:19:43.295Z,1010.22
2018-04-14T04:20:43.295Z,1010.22
2018-04-14T04:21:43.217Z,1010.26
2018-04-14T04:22:43.187Z,1010.25
2018-04-14T04:23:43.140Z,1010.24
2018-04-14T04:24:43.101Z,1010.25
2018-04-14T04:25:43.064Z,1010.25
2018-04-14T04:26:43.053Z,1010.24
2018-04-14T04:27:42.989Z,1010.26
2018-04-14T04:28:42.943Z,1010.24
2018-04-14T04:29:42.909Z,1010.24
2018-04-14T04:30:42.897Z,1010.29
2018-04-14T04:31:42.817Z,1010.31
2018-04-14T04:32:42.790Z,1010.32
2018-04-14T04:33:42.744Z,1010.37
2018-04-14T04:34:42.706Z,1010.39
2018-04-14T04:35:42.698Z,1010.41
2018-04-14T04:36:42.626Z,1010.45
2018-04-14T04:37:42.583Z,1010.46
2018-04-14T04:38:42.551Z,1010.49
2018-04-14T04:39:42.510Z,1010.48
2018-04-14T04:40:42.500Z,1010.57
2018-04-14T04:41:42.433Z,1010.56
2018-04-14T04:42:42.393Z,1010.56
2018-04-14T04:43:42.352Z,1010.59
2018-04-14T04:44:42.306Z,1010.59
2018-04-14T04:45:42.272Z,1010.58
2018-04-14T04:46:42.261Z,1010.59
2018-04-14T04:47:42.186Z,1010.62
2018-04-14T04:48:42.195Z,1010.64
2018-04-14T04:49:42.106Z,1010.66
2018-04-14T04:50:42.077Z,1010.66
2018-04-14T04:51:42.030Z,1010.67
2018-04-14T04:52:42.023Z,1010.68
2018-04-14T04:53:41.952Z,1010.71
2018-04-14T04:54:41.918Z,1010.69
2018-04-14T04:55:41.873Z,1010.75
2018-04-14T04:56:41.842Z,1010.76
2018-04-14T04:57:41.821Z,1010.73
2018-04-14T04:58:41.748Z,1010.75
2018-04-14T04:59:41.715Z,1010.74
2018-04-14T05:00:41.673Z,1010.67
2018-04-14T05:01:41.635Z,1010.64
2018-04-14T05:02:41.603Z,1010.65
2018-04-14T05:03:41.580Z,1010.68
2018-04-14T05:04:41.519Z,1010.72
2018-04-14T05:05:41.480Z,1010.74
2018-04-14T05:06:41.444Z,1010.74
2018-04-14T05:07:41.405Z,1010.75
2018-04-14T05:08:41.362Z,1010.77
2018-04-14T05:09:41.361Z,1010.84
2018-04-14T05:10:41.283Z,1010.82
2018-04-14T05:11:41.238Z,1010.82
2018-04-14T05:12:41.210Z,1010.83
2018-04-14T05:13:41.159Z,1010.85
2018-04-14T05:14:41.121Z,1010.88
2018-04-14T05:15:41.105Z,1010.84
2018-04-14T05:16:41.054Z,1010.89
2018-04-14T05:17:41.009Z,1010.89
2018-04-14T05:18:40.960Z,1010.92
2018-04-14T05:19:40.923Z,1010.88
2018-04-14T05:20:40.919Z,1010.92
2018-04-14T05:21:40.847Z,1010.96
2018-04-14T05:22:40.807Z,1010.93
2018-04-14T05:23:40.764Z,1010.97
2018-04-14T05:24:40.730Z,1010.97
2018-04-14T05:25:40.719Z,1010.98
2018-04-14T05:26:40.663Z,1010.95
2018-04-14T05:27:40.604Z,1010.96
2018-04-14T05:28:40.568Z,1010.96
2018-04-14T05:29:40.533Z,1010.97
2018-04-14T05:30:40.489Z,1010.99
2018-04-14T05:31:40.491Z,1011.01
2018-04-14T05:32:40.416Z,1011.00
2018-04-14T05:33:40.375Z,1010.99
2018-04-14T05:34:40.331Z,1011.01
2018-04-14T05:35:40.289Z,1011.05
2018-04-14T05:36:40.255Z,1011.06
2018-04-14T05:37:40.248Z,1011.10
2018-04-14T05:38:40.172Z,1011.14
2018-04-14T05:39:40.146Z,1011.17
2018-04-14T05:40:40.101Z,1011.16
2018-04-14T05:41:40.073Z,1011.21
2018-04-14T05:42:40.066Z,1011.23
2018-04-14T05:43:39.983Z,1011.25
2018-04-14T05:44:39.936Z,1011.24
2018-04-14T05:45:39.901Z,1011.32
2018-04-14T05:46:39.862Z,1011.32
2018-04-14T05:47:39.835Z,1011.34
2018-04-14T05:48:39.812Z,1011.35
2018-04-14T05:49:39.755Z,1011.38
2018-04-14T05:50:39.709Z,1011.40
2018-04-14T05:51:39.675Z,1011.38
2018-04-14T05:52:39.657Z,1011.42
2018-04-14T05:53:39.583Z,1011.45
2018-04-14T05:54:39.550Z,1011.48
2018-04-14T05:55:39.511Z,1011.46
2018-04-14T05:56:39.473Z,1011.49
2018-04-14T05:57:39.434Z,1011.49
2018-04-14T05:58:39.425Z,1011.50
2018-04-14T05:59:39.359Z,1011.49
2018-04-14T06:00:39.318Z,1011.55
2018-04-14T06:01:39.282Z,1011.48
2018-04-14T06:02:39.238Z,1011.54
2018-04-14T06:03:39.204Z,1011.56
2018-04-14T06:04:39.189Z,1011.61
2018-04-14T06:05:39.122Z,1011.66
2018-04-14T06:06:39.084Z,1011.63
2018-04-14T06:07:39.044Z,1011.65
2018-04-14T06:08:39.011Z,1011.64
2018-04-14T06:09:38.979Z,1011.60
2018-04-14T06:10:38.958Z,1011.63
2018-04-14T06:11:38.887Z,1011.62
2018-04-14T06:12:38.846Z,1011.62
2018-04-14T06:13:38.814Z,1011.67
2018-04-14T06:14:38.776Z,1011.66
2018-04-14T06:15:38.739Z,1011.66
2018-04-14T06:16:38.727Z,1011.66
2018-04-14T06:17:38.653Z,1011.68
2018-04-14T06:18:38.632Z,1011.61
2018-04-14T06:19:38.649Z,1011.68
2018-04-14T06:20:38.541Z,1011.70
2018-04-14T06:21:38.507Z,1011.71
2018-04-14T06:22:38.489Z,1011.76
2018-04-14T06:23:38.438Z,1011.78
2018-04-14T06:24:38.384Z,1011.78
2018-04-14T06:25:38.355Z,1011.78
2018-04-14T06:26:38.318Z,1011.82
2018-04-14T06:27:38.272Z,1011.82
2018-04-14T06:28:38.262Z,1011.86
2018-04-14T06:29:38.200Z,1011.88
2018-04-14T06:30:38.170Z,1011.92
2018-04-14T06:31:38.125Z,1011.93
2018-04-14T06:32:38.099Z,1011.92
2018-04-14T06:33:38.049Z,1012.00
2018-04-14T06:34:38.032Z,1012.05
2018-04-14T06:35:37.966Z,1012.03
2018-04-14T06:36:37.928Z,1012.10
2018-04-14T06:37:37.893Z,1012.11
2018-04-14T06:38:37.858Z,1012.12
2018-04-14T06:39:37.821Z,1012.10
2018-04-14T06:40:37.817Z,1012.07
2018-04-14T06:41:37.758Z,1012.04
2018-04-14T06:42:37.708Z,1012.13
2018-04-14T06:43:37.673Z,1012.15
2018-04-14T06:44:37.631Z,1012.19
2018-04-14T06:45:37.602Z,1012.20
2018-04-14T06:46:37.588Z,1012.26
2018-04-14T06:47:37.519Z,1012.26
2018-04-14T06:48:37.496Z,1012.25
2018-04-14T06:49:37.450Z,1012.28
2018-04-14T06:50:37.413Z,1012.33
2018-04-14T06:51:37.379Z,1012.34
2018-04-14T06:52:37.374Z,1012.32
2018-04-14T06:53:37.315Z,1012.28
2018-04-14T06:54:37.271Z,1012.24
2018-04-14T06:55:37.237Z,1012.26
2018-04-14T06:56:37.192Z,1012.30
2018-04-14T06:57:37.158Z,1012.31
2018-04-14T06:58:37.157Z,1012.30
2018-04-14T06:59:37.088Z,1012.32
2018-04-14T07:00:37.049Z,1012.34
2018-04-14T07:01:37.018Z,1012.38
2018-04-14T07:02:36.982Z,1012.37
2018-04-14T07:03:36.938Z,1012.36
2018-04-14T07:04:36.980Z,1012.38
2018-04-14T07:05:36.871Z,1012.40
2018-04-14T07:06:36.830Z,1012.42
2018-04-14T07:07:36.801Z,1012.47
2018-04-14T07:08:36.761Z,1012.47
2018-04-14T07:09:36.730Z,1012.45
2018-04-14T07:10:36.715Z,1012.50
2018-04-14T07:11:36.655Z,1012.49
2018-04-14T07:12:36.621Z,1012.52
2018-04-14T07:13:36.587Z,1012.59
2018-04-14T07:14:36.543Z,1012.65
2018-04-14T07:15:36.504Z,1012.67
2018-04-14T07:16:36.494Z,1012.74
2018-04-14T07:17:36.439Z,1012.73
2018-04-14T07:18:36.393Z,1012.79
2018-04-14T07:19:36.372Z,1012.81
2018-04-14T07:20:36.339Z,1012.81
2018-04-14T07:21:36.294Z,1012.81
2018-04-14T07:22:36.293Z,1012.87
2018-04-14T07:23:36.225Z,1012.87
2018-04-14T07:24:36.182Z,1012.81
2018-04-14T07:25:36.147Z,1012.85
2018-04-14T07:26:36.115Z,1012.90
2018-04-14T07:27:36.087Z,1012.90
2018-04-14T07:28:36.065Z,1012.90
2018-04-14T07:29:36.003Z,1012.92
2018-04-14T07:30:35.978Z,1013.01
2018-04-14T07:31:35.943Z,1013.07
2018-04-14T07:32:35.901Z,1013.02
2018-04-14T07:33:35.865Z,1013.05
2018-04-14T07:34:35.861Z,1013.03
2018-04-14T07:35:35.802Z,1013.03
2018-04-14T07:36:35.770Z,1013.07
2018-04-14T07:37:35.773Z,1013.01
2018-04-14T07:38:35.708Z,1012.98
2018-04-14T07:39:35.692Z,1012.80
2018-04-14T07:40:35.623Z,1012.81
2018-04-14T07:41:35.591Z,1012.87
2018-04-14T07:42:35.567Z,1012.82
2018-04-14T07:43:35.532Z,1012.82
2018-04-14T07:44:35.505Z,1012.84
2018-04-14T07:45:35.491Z,1012.83
2018-04-14T07:46:35.430Z,1012.87
2018-04-14T07:47:35.395Z,1012.91
2018-04-14T07:48:35.352Z,1012.89
2018-04-14T07:49:35.323Z,1012.96
2018-04-14T07:50:35.286Z,1013.04
2018-04-14T07:51:35.312Z,1013.05
2018-04-14T07:52:35.232Z,1013.10
2018-04-14T07:53:35.201Z,1013.13
2018-04-14T07:54:35.162Z,1013.17
2018-04-14T07:55:35.115Z,1013.21
2018-04-14T07:56:35.096Z,1013.29
2018-04-14T07:57:35.074Z,1013.27
2018-04-14T07:58:35.022Z,1013.28
2018-04-14T07:59:34.987Z,1013.37
2018-04-14T08:00:34.943Z,1013.36
2018-04-14T08:01:34.913Z,1013.20
2018-04-14T08:02:34.927Z,1013.34
2018-04-14T08:03:34.855Z,1013.37
2018-04-14T08:04:34.809Z,1013.39
2018-04-14T08:05:34.787Z,1013.44
2018-04-14T08:06:34.749Z,1013.37
2018-04-14T08:07:34.715Z,1013.30
2018-04-14T08:08:34.707Z,1013.21
2018-04-14T08:09:34.643Z,1013.24
2018-04-14T08:10:34.619Z,1013.22
2018-04-14T08:11:34.591Z,1013.15
2018-04-14T08:12:34.559Z,1013.14
2018-04-14T08:13:34.526Z,1013.13
2018-04-14T08:14:34.519Z,1013.10
2018-04-14T08:15:34.476Z,1013.05
2018-04-14T08:16:34.428Z,1013.06
2018-04-14T08:17:34.387Z,1013.11
2018-04-14T08:18:34.369Z,1013.10
2018-04-14T08:19:34.333Z,1013.14
2018-04-14T08:20:34.342Z,1013.21
2018-04-14T08:21:34.262Z,1013.28
2018-04-14T08:22:34.239Z,1013.20
2018-04-14T08:23:34.194Z,1013.45
2018-04-14T08:24:34.292Z,1013.34
2018-04-14T08:25:34.142Z,1013.39
2018-04-14T08:26:34.131Z,1013.68
2018-04-14T08:27:34.068Z,1013.50
2018-04-14T08:28:34.034Z,1013.32
2018-04-14T08:29:33.997Z,1013.32
2018-04-14T08:30:33.969Z,1013.30
2018-04-14T08:31:33.972Z,1013.25
2018-04-14T08:32:33.941Z,1013.23
2018-04-14T08:33:33.870Z,1013.18
2018-04-14T08:34:33.838Z,1013.24
2018-04-14T08:35:33.806Z,1013.26
2018-04-14T08:36:33.769Z,1013.25
2018-04-14T08:37:33.746Z,1013.20
2018-04-14T08:38:33.739Z,1013.20
2018-04-14T08:39:33.671Z,1013.23
2018-04-14T08:40:33.633Z,1013.22
2018-04-14T08:41:33.601Z,1013.26
2018-04-14T08:42:33.568Z,1013.30
2018-04-14T08:43:33.542Z,1013.30
2018-04-14T08:44:33.539Z,1013.32
2018-04-14T08:45:33.488Z,1013.35
2018-04-14T08:46:33.438Z,1013.43
2018-04-14T08:47:33.406Z,1013.42
2018-04-14T08:48:33.468Z,1013.58
2018-04-14T08:49:33.335Z,1013.52
2018-04-14T08:50:33.326Z,1013.49
2018-04-14T08:51:33.293Z,1013.40
2018-04-14T08:52:33.231Z,1013.42
2018-04-14T08:53:33.247Z,1013.44
2018-04-14T08:54:33.178Z,1013.43
2018-04-14T08:55:33.132Z,1013.67
2018-04-14T08:56:33.149Z,1013.63
2018-04-14T08:57:33.066Z,1013.60
2018-04-14T08:58:33.028Z,1013.56
2018-04-14T08:59:32.994Z,1013.53
2018-04-14T09:00:32.984Z,1013.53
2018-04-14T09:01:32.925Z,1013.54
2018-04-14T09:02:32.938Z,1013.50
2018-04-14T09:03:32.867Z,1013.56
2018-04-14T09:04:32.832Z,1013.52
2018-04-14T09:05:32.799Z,1013.52
2018-04-14T09:06:32.769Z,1013.54
2018-04-14T09:07:32.779Z,1013.57
2018-04-14T09:08:32.703Z,1013.61
2018-04-14T09:09:32.674Z,1013.73
2018-04-14T09:10:32.688Z,1013.66
2018-04-14T09:11:32.598Z,1013.59
2018-04-14T09:12:32.628Z,1013.62
2018-04-14T09:13:32.567Z,1013.63
2018-04-14T09:14:32.502Z,1013.66
2018-04-14T09:15:32.468Z,1013.60
2018-04-14T09:16:32.453Z,1013.63
2018-04-14T09:17:32.430Z,1013.76
2018-04-14T09:18:32.376Z,1013.71
2018-04-14T09:19:32.367Z,1013.74
2018-04-14T09:20:32.307Z,1013.78
2018-04-14T09:21:32.274Z,1013.95
2018-04-14T09:22:32.242Z,1013.94
2018-04-14T09:23:32.223Z,1013.99
2018-04-14T09:24:32.211Z,1013.96
2018-04-14T09:25:32.181Z,1013.92
2018-04-14T09:26:32.139Z,1014.04
2018-04-14T09:27:32.080Z,1013.82
2018-04-14T09:28:32.058Z,1014.01
2018-04-14T09:29:32.043Z,1014.19
2018-04-14T09:30:31.990Z,1014.19
2018-04-14T09:31:32.008Z,1014.17
2018-04-14T09:32:31.937Z,1014.19
2018-04-14T09:33:31.904Z,1014.21
2018-04-14T09:34:31.876Z,1014.26
2018-04-14T09:35:31.844Z,1014.22
2018-04-14T09:36:31.847Z,1014.17
2018-04-14T09:37:31.819Z,1014.12
2018-04-14T09:38:31.748Z,1014.09
2018-04-14T09:39:31.726Z,1014.21
2018-04-14T09:40:31.697Z,1014.04
2018-04-14T09:41:31.673Z,1014.00
2018-04-14T09:42:31.677Z,1013.82
2018-04-14T09:43:31.628Z,1013.78
2018-04-14T09:44:31.592Z,1013.74
2018-04-14T09:45:31.546Z,1013.74
2018-04-14T09:46:31.524Z,1013.74
2018-04-14T09:47:31.509Z,1014.08
2018-04-14T09:48:31.489Z,1014.34
2018-04-14T09:49:31.439Z,1014.26
2018-04-14T09:50:31.405Z,1014.31
2018-04-14T09:51:31.378Z,1014.44
2018-04-14T09:52:31.347Z,1014.46
2018-04-14T09:53:31.312Z,1014.54
2018-04-14T09:54:31.334Z,1014.56
2018-04-14T09:55:31.254Z,1014.56
2018-04-14T09:56:31.242Z,1014.58
2018-04-14T09:57:31.194Z,1014.52
2018-04-14T09:58:31.178Z,1014.55
2018-04-14T09:59:31.168Z,1014.50
2018-04-14T10:00:31.129Z,1014.50
2018-04-14T10:01:31.087Z,1014.45
2018-04-14T10:02:31.062Z,1014.45
2018-04-14T10:03:31.028Z,1014.40
2018-04-14T10:04:31.036Z,1014.37
2018-04-14T10:05:31.017Z,1014.36
2018-04-14T10:06:30.945Z,1014.36
2018-04-14T10:07:30.916Z,1014.38
2018-04-14T10:08:30.900Z,1014.17
2018-04-14T10:09:30.877Z,1014.34
2018-04-14T10:10:30.876Z,1014.16
2018-04-14T10:11:30.841Z,1013.89
2018-04-14T10:12:30.788Z,1013.98
2018-04-14T10:13:30.761Z,1013.81
2018-04-14T10:14:30.731Z,1013.74
2018-04-14T10:15:30.708Z,1013.83
2018-04-14T10:16:30.721Z,1013.63
2018-04-14T10:17:30.655Z,1013.62
2018-04-14T10:18:30.631Z,1013.69
2018-04-14T10:19:30.590Z,1013.88
2018-04-14T10:20:30.586Z,1013.90
2018-04-14T10:21:30.537Z,1013.79
2018-04-14T10:22:30.534Z,1013.62
2018-04-14T10:23:30.485Z,1013.52
2018-04-14T10:24:30.467Z,1013.46
2018-04-14T10:25:30.458Z,1013.50
2018-04-14T10:26:30.404Z,1013.44
2018-04-14T10:27:30.364Z,1013.46
2018-04-14T10:28:30.417Z,1013.50
2018-04-14T10:29:30.317Z,1013.54
2018-04-14T10:30:30.303Z,1013.57
2018-04-14T10:31:30.246Z,1013.61
2018-04-14T10:32:30.215Z,1013.61
2018-04-14T10:33:30.210Z,1013.77
2018-04-14T10:34:30.206Z,1013.81
2018-04-14T10:35:30.122Z,1013.72
2018-04-14T10:36:30.099Z,1013.79
2018-04-14T10:37:30.056Z,1013.66
2018-04-14T10:38:30.028Z,1013.70
2018-04-14T10:39:30.031Z,1013.63
2018-04-14T10:40:29.973Z,1013.66
2018-04-14T10:41:29.929Z,1013.64
2018-04-14T10:42:29.905Z,1013.71
2018-04-14T10:43:29.876Z,1013.79
2018-04-14T10:44:29.844Z,1013.97
2018-04-14T10:45:29.879Z,1014.06
2018-04-14T10:46:29.772Z,1014.11
2018-04-14T10:47:29.752Z,1014.16
2018-04-14T10:48:29.707Z,1014.14
2018-04-14T10:49:29.676Z,1014.22
2018-04-14T10:50:29.693Z,1014.27
2018-04-14T10:51:29.612Z,1014.22
2018-04-14T10:52:29.632Z,1014.27
2018-04-14T10:53:29.568Z,1014.22
2018-04-14T10:54:29.531Z,1014.21
2018-04-14T10:55:29.566Z,1014.21
2018-04-14T10:56:29.593Z,1014.21
2018-04-14T10:57:29.473Z,1014.19
2018-04-14T10:58:29.403Z,1014.22
2018-04-14T10:59:29.403Z,1014.22
2018-04-14T11:00:29.360Z,1014.12
2018-04-14T11:01:29.328Z,1014.11
2018-04-14T11:02:29.327Z,1014.05
2018-04-14T11:03:29.257Z,1013.96
2018-04-14T11:04:29.237Z,1014.13
2018-04-14T11:05:29.204Z,1014.17
2018-04-14T11:06:29.177Z,1014.15
2018-04-14T11:07:29.179Z,1014.16
2018-04-14T11:08:29.135Z,1014.13
2018-04-14T11:09:29.139Z,1014.12
2018-04-14T11:10:29.068Z,1014.15
2018-04-14T11:11:29.039Z,1014.17
2018-04-14T11:12:29.017Z,1014.08
2018-04-14T11:13:29.038Z,1014.07
2018-04-14T11:14:28.973Z,1014.04
2018-04-14T11:15:28.925Z,1014.00
2018-04-14T11:16:28.901Z,1013.67
2018-04-14T11:17:28.877Z,1013.73
2018-04-14T11:18:28.853Z,1013.61
2018-04-14T11:19:28.869Z,1013.84
2018-04-14T11:20:28.801Z,1013.88
2018-04-14T11:21:28.767Z,1014.06
2018-04-14T11:22:28.748Z,1014.05
2018-04-14T11:23:28.716Z,1013.95
2018-04-14T11:24:28.687Z,1013.65
2018-04-14T11:25:28.688Z,1013.54
2018-04-14T11:26:28.618Z,1013.83
2018-04-14T11:27:28.598Z,1014.02
2018-04-14T11:28:28.567Z,1013.81
2018-04-14T11:29:28.536Z,1013.85
2018-04-14T11:30:28.523Z,1013.88
2018-04-14T11:31:28.551Z,1014.00
2018-04-14T11:32:28.453Z,1014.00
2018-04-14T11:33:28.416Z,1014.01
2018-04-14T11:34:28.397Z,1014.04
2018-04-14T11:35:28.369Z,1013.97
2018-04-14T11:36:28.332Z,1013.89
2018-04-14T11:37:28.332Z,1013.85
2018-04-14T11:38:28.278Z,1013.70
2018-04-14T11:39:28.257Z,1013.81
2018-04-14T11:40:28.218Z,1013.88
2018-04-14T11:41:28.185Z,1013.92
2018-04-14T11:42:28.197Z,1014.01
2018-04-14T11:43:28.180Z,1013.99
2018-04-14T11:44:28.112Z,1014.02
2018-04-14T11:45:28.074Z,1014.03
2018-04-14T11:46:28.053Z,1014.04
2018-04-14T11:47:28.019Z,1013.84
2018-04-14T11:48:28.021Z,1013.49
2018-04-14T11:49:27.974Z,1013.45
2018-04-14T11:50:27.933Z,1013.78
2018-04-14T11:51:27.916Z,1013.92
2018-04-14T11:52:27.885Z,1013.92
2018-04-14T11:53:27.860Z,1013.95
2018-04-14T11:54:27.864Z,1014.00
2018-04-14T11:55:27.818Z,1013.94
2018-04-14T11:56:27.781Z,1013.87
2018-04-14T11:57:27.753Z,1013.94
2018-04-14T11:58:27.722Z,1013.90
2018-04-14T11:59:27.736Z,1013.97
2018-04-14T12:00:27.650Z,1013.95
2018-04-14T12:01:27.624Z,1013.96
2018-04-14T12:02:27.605Z,1013.93
2018-04-14T12:03:27.575Z,1013.97
2018-04-14T12:04:27.565Z,1013.93
2018-04-14T12:05:27.586Z,1013.81